Time;durP1;ratioP1;P1;durP2;ratioP2;P2;SDS_P1;SDS_P2;PMS_P1;PMS_P2;Temp;Humidity;BMP_temperature;BMP_pressure;BME280_temperature;BME280_humidity;BME280_pressure;Samples;Min_cycle;Max_cycle;Signal;HPM_P1;HPM_P2
2021/01/09 00:01:03;;;;;;;27.25;15.10;;;1.70;99.90;;;;;;4935719;29;20207;-76
2021/01/09 00:03:29;;;;;;;22.60;14.30;;;1.60;99.90;;;;;;4933421;29;20223;-76
2021/01/09 00:05:56;;;;;;;19.00;11.90;;;1.60;99.90;;;;;;4930167;29;20195;-76
2021/01/09 00:08:23;;;;;;;22.63;13.70;;;1.70;99.90;;;;;;4932012;29;20242;-76
2021/01/09 00:10:51;;;;;;;22.08;12.85;;;1.70;99.90;;;;;;4933067;29;20286;-76
2021/01/09 00:13:17;;;;;;;21.90;11.80;;;1.70;99.90;;;;;;4933178;29;20285;-76
2021/01/09 00:15:44;;;;;;;14.63;10.02;;;1.70;99.90;;;;;;4933164;29;20199;-76
2021/01/09 00:18:11;;;;;;;18.20;10.30;;;1.60;99.90;;;;;;4918437;29;20257;-76
2021/01/09 00:20:37;;;;;;;17.40;10.90;;;1.60;99.90;;;;;;4934988;29;20206;-76
2021/01/09 00:23:05;;;;;;;14.82;9.95;;;1.60;99.90;;;;;;4935016;29;20313;-76
2021/01/09 00:25:32;;;;;;;22.77;12.45;;;1.70;99.90;;;;;;4933437;29;20234;-76
2021/01/09 00:27:59;;;;;;;18.17;10.07;;;1.70;99.90;;;;;;4929747;29;20191;-77
2021/01/09 00:30:26;;;;;;;16.38;9.60;;;1.70;99.90;;;;;;4931945;29;20246;-76
2021/01/09 00:32:52;;;;;;;17.98;10.40;;;1.70;99.90;;;;;;4932485;29;20237;-77
2021/01/09 00:35:19;;;;;;;16.85;9.95;;;1.60;99.90;;;;;;4932839;29;20285;-77
2021/01/09 00:37:46;;;;;;;15.05;9.85;;;1.60;99.90;;;;;;4932548;29;20254;-77
2021/01/09 00:40:13;;;;;;;15.25;9.02;;;1.70;99.90;;;;;;4934969;29;20289;-76
2021/01/09 00:42:41;;;;;;;14.30;8.82;;;1.70;99.90;;;;;;4934752;29;20245;-76
2021/01/09 00:45:09;;;;;;;17.15;9.45;;;1.70;99.90;;;;;;4934562;29;20289;-76
2021/01/09 00:47:36;;;;;;;17.38;9.80;;;1.70;99.90;;;;;;4915940;29;20210;-77
2021/01/09 00:50:04;;;;;;;15.25;9.63;;;1.70;99.90;;;;;;4929376;29;20278;-77
2021/01/09 00:52:31;;;;;;;11.75;9.05;;;1.70;99.90;;;;;;4914873;29;20233;-76
2021/01/09 00:54:57;;;;;;;18.38;10.20;;;1.80;99.90;;;;;;4932493;29;20201;-77
2021/01/09 00:57:24;;;;;;;15.90;8.05;;;1.70;99.90;;;;;;4932946;29;20210;-76
2021/01/09 00:59:52;;;;;;;19.05;10.27;;;1.80;99.90;;;;;;4932755;29;20199;-77
2021/01/09 01:02:18;;;;;;;16.25;8.98;;;1.70;99.90;;;;;;4934468;29;20250;-77
2021/01/09 01:04:46;;;;;;;11.50;7.95;;;1.80;99.90;;;;;;4934672;29;20681;-77
2021/01/09 01:07:13;;;;;;;18.00;9.38;;;1.80;99.90;;;;;;4937690;29;20241;-77
2021/01/09 01:09:39;;;;;;;11.95;8.43;;;1.80;99.90;;;;;;4936163;29;20226;-77
2021/01/09 01:12:07;;;;;;;12.32;7.28;;;1.80;99.90;;;;;;4929763;29;20321;-77
2021/01/09 01:14:33;;;;;;;16.08;9.20;;;1.80;99.90;;;;;;4932601;29;20221;-76
2021/01/09 01:17:01;;;;;;;15.80;7.80;;;1.80;99.90;;;;;;4933525;29;20760;-77
2021/01/09 01:19:27;;;;;;;15.18;8.63;;;1.70;99.90;;;;;;4932999;29;20195;-77
2021/01/09 01:21:54;;;;;;;16.10;9.00;;;1.70;99.90;;;;;;4933416;29;20235;-77
2021/01/09 01:24:20;;;;;;;14.05;8.05;;;1.80;99.90;;;;;;4935508;29;20199;-77
2021/01/09 01:26:47;;;;;;;18.45;8.95;;;1.80;99.90;;;;;;4937718;29;20201;-76
2021/01/09 01:29:14;;;;;;;14.77;8.90;;;1.70;99.90;;;;;;4935752;29;20203;-76
2021/01/09 01:31:40;;;;;;;15.75;8.73;;;1.80;99.90;;;;;;4931871;29;20230;-75
2021/01/09 01:34:08;;;;;;;14.10;8.52;;;1.70;99.90;;;;;;4929202;29;20205;-75
2021/01/09 01:36:34;;;;;;;15.50;9.20;;;1.70;99.90;;;;;;4931346;29;20352;-76
2021/01/09 01:39:01;;;;;;;13.85;8.10;;;1.70;99.90;;;;;;4932378;29;20213;-76
2021/01/09 01:41:28;;;;;;;13.07;8.38;;;1.70;99.90;;;;;;4932048;29;20210;-76
2021/01/09 01:43:54;;;;;;;12.77;8.07;;;1.70;99.90;;;;;;4931824;29;20194;-76
2021/01/09 01:46:21;;;;;;;15.38;9.50;;;1.80;99.90;;;;;;4917416;29;20201;-76
2021/01/09 01:48:48;;;;;;;13.40;8.32;;;1.70;99.90;;;;;;4933883;29;20311;-76
2021/01/09 01:51:16;;;;;;;15.82;8.80;;;1.90;99.90;;;;;;4934039;29;20199;-76
2021/01/09 01:53:42;;;;;;;12.77;8.15;;;1.90;99.90;;;;;;4932015;29;20187;-76
2021/01/09 01:56:09;;;;;;;16.10;8.95;;;1.80;99.90;;;;;;4930270;29;20210;-76
2021/01/09 01:58:36;;;;;;;14.32;8.88;;;1.90;99.90;;;;;;4935773;29;20192;-76
2021/01/09 02:01:03;;;;;;;15.38;8.25;;;1.90;99.90;;;;;;4939626;29;20622;-76
2021/01/09 02:03:29;;;;;;;18.05;9.35;;;1.90;99.90;;;;;;4939872;29;20215;-76
2021/01/09 02:06:02;;;;;;;15.07;9.73;;;1.90;99.90;;;;;;4939847;29;20228;-77
2021/01/09 02:08:35;;;;;;;15.07;8.82;;;1.90;99.90;;;;;;4937967;29;20227;-76
2021/01/09 02:11:04;;;;;;;11.98;8.10;;;1.90;99.90;;;;;;4937583;29;20203;-76
2021/01/09 02:13:39;;;;;;;13.85;8.77;;;1.90;99.90;;;;;;4937390;29;20309;-76
2021/01/09 02:16:06;;;;;;;14.82;9.55;;;1.90;99.90;;;;;;4917683;29;20194;-76
2021/01/09 02:18:36;;;;;;;14.88;8.68;;;2.00;99.90;;;;;;4932451;29;20199;-76
2021/01/09 02:21:06;;;;;;;13.55;8.27;;;2.00;99.90;;;;;;4934986;29;20200;-76
2021/01/09 02:23:34;;;;;;;16.65;8.73;;;1.90;99.90;;;;;;4935192;29;20293;-76
2021/01/09 02:26:01;;;;;;;15.43;9.15;;;2.00;99.90;;;;;;4934699;29;20690;-75
2021/01/09 02:28:28;;;;;;;15.60;8.73;;;2.00;99.90;;;;;;4935444;29;20303;-76
2021/01/09 02:30:59;;;;;;;15.93;9.02;;;2.00;99.90;;;;;;4937511;29;20247;-77
2021/01/09 02:33:27;;;;;;;13.27;8.90;;;2.10;99.90;;;;;;4937066;29;20241;-76
2021/01/09 02:35:55;;;;;;;17.00;9.35;;;2.00;99.90;;;;;;4937126;29;20241;-76
2021/01/09 02:38:21;;;;;;;13.02;8.25;;;2.10;99.90;;;;;;4933857;29;20597;-76
2021/01/09 02:40:49;;;;;;;17.95;9.35;;;2.10;99.90;;;;;;4931516;29;20199;-76
2021/01/09 02:43:16;;;;;;;15.52;9.13;;;2.10;99.90;;;;;;4934345;29;20595;-76
2021/01/09 02:45:42;;;;;;;12.77;9.27;;;2.10;99.90;;;;;;4934791;29;20199;-76
2021/01/09 02:48:09;;;;;;;12.05;8.77;;;2.10;99.90;;;;;;4934766;29;20258;-76
2021/01/09 02:50:36;;;;;;;12.50;8.52;;;2.10;99.90;;;;;;4935076;29;20199;-76
2021/01/09 02:53:03;;;;;;;13.55;9.10;;;2.10;99.90;;;;;;4936984;29;20289;-76
2021/01/09 02:55:30;;;;;;;14.57;8.93;;;2.20;99.90;;;;;;4920073;29;20203;-75
2021/01/09 02:57:57;;;;;;;12.13;8.00;;;2.10;99.90;;;;;;4936976;29;20298;-76
2021/01/09 03:00:24;;;;;;;13.32;8.38;;;2.20;99.90;;;;;;4933566;29;20206;-75
2021/01/09 03:02:51;;;;;;;11.88;7.65;;;2.20;99.90;;;;;;4931335;29;20215;-76
2021/01/09 03:05:17;;;;;;;14.07;8.90;;;2.20;99.90;;;;;;4934056;29;20289;-76
2021/01/09 03:07:43;;;;;;;12.05;8.23;;;2.20;99.90;;;;;;4933761;29;20237;-76
2021/01/09 03:10:10;;;;;;;12.93;8.65;;;2.20;99.90;;;;;;4934184;29;20310;-76
2021/01/09 03:12:37;;;;;;;15.65;9.60;;;2.20;99.90;;;;;;4934854;29;20324;-76
2021/01/09 03:15:06;;;;;;;13.88;9.18;;;2.20;99.90;;;;;;4936589;29;20566;-76
2021/01/09 03:17:33;;;;;;;16.40;8.75;;;2.20;99.90;;;;;;4936317;29;20209;-76
2021/01/09 03:19:59;;;;;;;17.05;9.80;;;2.20;99.90;;;;;;4936188;29;20223;-76
2021/01/09 03:22:25;;;;;;;11.55;8.52;;;2.20;99.90;;;;;;4932734;29;20636;-76
2021/01/09 03:24:52;;;;;;;12.00;8.35;;;2.10;99.90;;;;;;4931030;29;20195;-76
2021/01/09 03:27:18;;;;;;;14.90;8.32;;;2.10;99.90;;;;;;4933617;29;20470;-76
2021/01/09 03:29:45;;;;;;;13.00;8.27;;;2.10;99.90;;;;;;4934026;29;20203;-76
2021/01/09 03:32:12;;;;;;;13.85;8.05;;;2.10;99.90;;;;;;4933758;29;20795;-76
2021/01/09 03:34:39;;;;;;;16.88;10.02;;;2.10;99.90;;;;;;4934417;29;20211;-76
2021/01/09 03:37:06;;;;;;;13.40;8.00;;;2.00;99.90;;;;;;4935834;29;20253;-76
2021/01/09 03:39:32;;;;;;;16.00;9.00;;;1.90;99.90;;;;;;4936067;29;20290;-76
2021/01/09 03:41:59;;;;;;;13.07;8.18;;;1.90;99.90;;;;;;4935887;29;20626;-76
2021/01/09 03:44:25;;;;;;;13.48;8.23;;;1.90;99.90;;;;;;4932725;29;20218;-76
2021/01/09 03:46:52;;;;;;;12.18;7.85;;;1.90;99.90;;;;;;4930223;29;20661;-76
2021/01/09 03:49:19;;;;;;;12.82;9.02;;;1.80;99.90;;;;;;4933504;29;20199;-77
2021/01/09 03:51:46;;;;;;;16.25;9.80;;;1.80;99.90;;;;;;4933396;29;20256;-76
2021/01/09 03:54:13;;;;;;;12.77;9.55;;;1.80;99.90;;;;;;4933657;29;20198;-76
2021/01/09 03:56:39;;;;;;;12.68;9.00;;;1.80;99.90;;;;;;4934000;29;20234;-76
2021/01/09 03:59:06;;;;;;;15.70;9.82;;;1.70;99.90;;;;;;4935615;29;20205;-76
2021/01/09 04:01:32;;;;;;;15.45;9.85;;;1.80;99.90;;;;;;4935403;29;20290;-76
2021/01/09 04:03:59;;;;;;;18.20;9.20;;;1.70;99.90;;;;;;4935432;29;20205;-76
2021/01/09 04:06:26;;;;;;;15.75;9.52;;;1.80;99.90;;;;;;4932485;29;20201;-76
2021/01/09 04:08:53;;;;;;;12.80;8.88;;;1.70;99.90;;;;;;4929827;29;20565;-76
2021/01/09 04:11:19;;;;;;;12.15;9.20;;;1.70;99.90;;;;;;4932504;29;20238;-76
2021/01/09 04:13:46;;;;;;;11.88;8.52;;;1.70;99.90;;;;;;4933414;29;20763;-76
2021/01/09 04:16:12;;;;;;;13.45;9.20;;;1.80;99.90;;;;;;4933533;29;20633;-76
2021/01/09 04:18:39;;;;;;;13.32;8.60;;;1.80;99.90;;;;;;4932982;29;20203;-76
2021/01/09 04:21:06;;;;;;;13.70;9.10;;;1.80;99.90;;;;;;4935465;29;20203;-76
2021/01/09 04:23:33;;;;;;;15.93;10.20;;;1.70;99.90;;;;;;4935105;29;20309;-76
2021/01/09 04:26:00;;;;;;;15.73;9.50;;;1.70;99.90;;;;;;4918300;29;20289;-76
2021/01/09 04:28:26;;;;;;;12.68;8.98;;;1.70;99.90;;;;;;4932094;29;20193;-77
2021/01/09 04:30:53;;;;;;;12.85;8.93;;;1.60;99.90;;;;;;4929591;29;20202;-76
2021/01/09 04:33:20;;;;;;;13.82;9.73;;;1.60;99.90;;;;;;4932015;29;20286;-76
2021/01/09 04:35:46;;;;;;;15.60;10.00;;;1.70;99.90;;;;;;4932691;29;20703;-77
2021/01/09 04:38:13;;;;;;;15.07;9.57;;;1.70;99.90;;;;;;4932830;29;20286;-76
2021/01/09 04:40:41;;;;;;;15.43;8.63;;;1.60;99.90;;;;;;4933220;29;20294;-76
2021/01/09 04:43:08;;;;;;;13.98;9.30;;;1.70;99.90;;;;;;4934918;29;20219;-76
2021/01/09 04:45:35;;;;;;;17.67;9.70;;;1.70;99.90;;;;;;4934826;29;20213;-76
2021/01/09 04:48:02;;;;;;;17.58;9.82;;;1.70;99.90;;;;;;4935094;29;20254;-76
2021/01/09 04:50:29;;;;;;;14.20;9.85;;;1.70;99.90;;;;;;4931918;29;20197;-76
2021/01/09 04:52:56;;;;;;;18.38;10.80;;;1.70;99.90;;;;;;4929261;29;20588;-77
2021/01/09 04:55:24;;;;;;;17.58;9.95;;;1.70;99.90;;;;;;4932253;29;20306;-76
2021/01/09 04:57:52;;;;;;;16.88;9.73;;;1.70;99.90;;;;;;4932414;29;20558;-76
2021/01/09 05:00:19;;;;;;;21.75;10.40;;;1.70;99.90;;;;;;4932439;29;20225;-76
2021/01/09 05:02:46;;;;;;;17.00;10.45;;;1.80;99.90;;;;;;4932873;29;20230;-76
2021/01/09 05:05:13;;;;;;;17.90;9.93;;;1.70;99.90;;;;;;4934433;29;20199;-76
2021/01/09 05:07:39;;;;;;;17.77;9.98;;;1.70;99.90;;;;;;4934669;29;20200;-76
2021/01/09 05:10:06;;;;;;;18.58;11.75;;;1.80;99.90;;;;;;4934315;29;20235;-75
2021/01/09 05:12:35;;;;;;;17.25;10.23;;;1.80;99.90;;;;;;4931195;29;20231;-76
2021/01/09 05:15:04;;;;;;;18.92;11.30;;;1.80;99.90;;;;;;4929044;29;20289;-76
2021/01/09 05:17:31;;;;;;;19.48;11.90;;;1.80;99.90;;;;;;4913087;29;20604;-76
2021/01/09 05:19:58;;;;;;;18.80;11.45;;;1.80;99.90;;;;;;4913154;29;20641;-76
2021/01/09 05:22:25;;;;;;;21.50;11.32;;;1.90;99.90;;;;;;4912994;29;20243;-76
2021/01/09 05:24:53;;;;;;;19.60;11.13;;;1.90;99.90;;;;;;4919593;29;20209;-75
2021/01/09 05:27:20;;;;;;;14.23;9.82;;;1.90;99.90;;;;;;4934176;29;20222;-76
2021/01/09 05:29:53;;;;;;;19.95;10.55;;;1.90;99.90;;;;;;4933891;29;20246;-76
2021/01/09 05:32:21;;;;;;;17.35;10.88;;;1.90;99.90;;;;;;4933905;29;20230;-75
2021/01/09 05:34:48;;;;;;;23.17;11.35;;;2.00;99.90;;;;;;4930799;29;20205;-76
2021/01/09 05:37:18;;;;;;;18.23;10.95;;;2.00;99.90;;;;;;4929205;29;20202;-79
2021/01/09 05:39:49;;;;;;;17.38;10.38;;;2.00;99.90;;;;;;4914450;29;20289;-76
2021/01/09 05:42:16;;;;;;;20.55;11.73;;;2.10;99.90;;;;;;4932094;29;20229;-76
2021/01/09 05:44:45;;;;;;;26.10;12.00;;;2.10;99.90;;;;;;4932337;29;20292;-76
2021/01/09 05:47:11;;;;;;;23.77;12.45;;;2.00;99.90;;;;;;4932753;29;20604;-76
2021/01/09 05:49:42;;;;;;;25.75;13.75;;;2.10;99.90;;;;;;4934179;29;20206;-76
2021/01/09 05:52:10;;;;;;;22.52;13.02;;;2.10;99.90;;;;;;4933780;29;20233;-76
2021/01/09 05:54:37;;;;;;;25.50;14.38;;;2.10;99.90;;;;;;4933942;29;20254;-75
2021/01/09 05:57:05;;;;;;;28.40;14.90;;;2.10;99.90;;;;;;4930068;29;20289;-76
2021/01/09 05:59:32;;;;;;;23.92;13.50;;;2.10;99.90;;;;;;4929751;29;20195;-76
2021/01/09 06:02:00;;;;;;;29.23;15.10;;;2.10;99.90;;;;;;4931157;29;20557;-76
2021/01/09 06:04:29;;;;;;;25.67;13.98;;;2.10;99.90;;;;;;4931889;29;20731;-76
2021/01/09 06:07:06;;;;;;;23.40;13.35;;;2.10;99.90;;;;;;4932460;29;20688;-76
2021/01/09 06:09:38;;;;;;;26.10;14.43;;;2.20;99.90;;;;;;4915660;29;20306;-76
2021/01/09 06:12:07;;;;;;;32.03;14.75;;;2.20;99.90;;;;;;4917313;29;20245;-76
2021/01/09 06:14:35;;;;;;;31.75;15.52;;;2.20;99.90;;;;;;4917094;29;20222;-76
2021/01/09 06:17:03;;;;;;;30.13;14.93;;;2.20;99.90;;;;;;4933782;29;20207;-75
2021/01/09 06:19:31;;;;;;;29.33;13.65;;;2.10;99.90;;;;;;4928838;29;20204;-76
2021/01/09 06:21:59;;;;;;;27.08;13.85;;;2.20;99.90;;;;;;4928869;29;20212;-76
2021/01/09 06:24:26;;;;;;;35.78;15.88;;;2.20;99.90;;;;;;4914820;29;20203;-76
2021/01/09 06:26:54;;;;;;;29.05;14.57;;;2.20;99.90;;;;;;4931342;29;20294;-76
2021/01/09 06:29:22;;;;;;;29.58;15.80;;;2.30;99.90;;;;;;4931729;29;20306;-76
2021/01/09 06:31:52;;;;;;;28.63;13.43;;;2.30;99.90;;;;;;4932292;29;20219;-75
2021/01/09 06:34:21;;;;;;;25.02;13.60;;;2.20;99.90;;;;;;4916925;29;20191;-76
2021/01/09 06:36:54;;;;;;;29.35;14.75;;;2.30;99.90;;;;;;4933936;29;20199;-76
2021/01/09 06:39:24;;;;;;;27.88;14.07;;;2.30;99.90;;;;;;4916786;29;20203;-76
2021/01/09 06:41:53;;;;;;;32.88;15.80;;;2.20;99.90;;;;;;4928979;29;20215;-76
2021/01/09 06:44:22;;;;;;;27.50;14.80;;;2.30;99.90;;;;;;4932734;29;20258;-76
2021/01/09 06:46:51;;;;;;;35.33;16.73;;;2.20;99.90;;;;;;4917788;29;20678;-76
2021/01/09 06:49:19;;;;;;;23.63;14.18;;;2.20;99.90;;;;;;4934773;29;20199;-76
2021/01/09 06:51:52;;;;;;;24.52;13.05;;;2.20;99.90;;;;;;4918023;29;20314;-76
2021/01/09 06:54:23;;;;;;;26.90;14.95;;;2.20;99.90;;;;;;4936224;29;20221;-76
2021/01/09 06:56:51;;;;;;;22.58;12.68;;;2.20;99.90;;;;;;4936926;29;20203;-76
2021/01/09 06:59:33;;;;;;;23.17;14.10;;;2.20;99.90;;;;;;4936659;29;20207;-76
2021/01/09 07:02:16;;;;;;;33.05;15.13;;;2.20;99.90;;;;;;4916304;29;20270;-75
2021/01/09 07:04:58;;;;;;;23.80;14.70;;;2.20;99.90;;;;;;4914967;29;20203;-75
2021/01/09 07:07:29;;;;;;;35.63;15.18;;;2.20;99.90;;;;;;4917792;29;20195;-75
2021/01/09 07:10:06;;;;;;;33.45;14.88;;;2.30;99.90;;;;;;4917571;29;20257;-75
2021/01/09 07:12:34;;;;;;;29.35;14.70;;;2.20;99.90;;;;;;4934457;29;20302;-75
2021/01/09 07:15:05;;;;;;;28.50;15.30;;;2.30;99.90;;;;;;4931811;29;20254;-74
2021/01/09 07:17:34;;;;;;;30.42;14.77;;;2.20;99.90;;;;;;4919232;29;20291;-77
2021/01/09 07:20:04;;;;;;;32.33;16.33;;;2.20;99.90;;;;;;4916514;29;20532;-76
2021/01/09 07:22:32;;;;;;;27.90;14.48;;;2.20;99.90;;;;;;4909963;29;20211;-77
2021/01/09 07:25:00;;;;;;;30.00;15.43;;;2.20;99.90;;;;;;4913855;29;20231;-76
2021/01/09 07:27:34;;;;;;;30.83;15.63;;;2.30;99.90;;;;;;4931873;29;20195;-75
2021/01/09 07:30:07;;;;;;;33.15;17.77;;;2.30;99.90;;;;;;4917339;29;20202;-77
2021/01/09 07:32:40;;;;;;;34.03;15.65;;;2.30;99.90;;;;;;4916522;29;20334;-76
2021/01/09 07:35:08;;;;;;;34.58;15.52;;;2.20;99.90;;;;;;4934418;29;20217;-76
2021/01/09 07:37:39;;;;;;;32.40;15.95;;;2.30;99.90;;;;;;4924846;29;20214;-76
2021/01/09 07:40:13;;;;;;;34.00;16.10;;;2.30;99.90;;;;;;4934596;29;20203;-77
2021/01/09 07:42:40;;;;;;;34.10;17.77;;;2.30;99.90;;;;;;4935575;29;20630;-76
2021/01/09 07:45:09;;;;;;;30.88;16.80;;;2.20;99.90;;;;;;4934586;29;20191;-75
2021/01/09 07:47:39;;;;;;;34.58;17.10;;;2.30;99.90;;;;;;4929545;29;20620;-75
2021/01/09 07:50:07;;;;;;;34.03;15.80;;;2.20;99.90;;;;;;4912829;29;20207;-76
2021/01/09 07:52:34;;;;;;;37.53;16.65;;;2.30;99.90;;;;;;4932000;29;20262;-75
2021/01/09 07:55:02;;;;;;;35.65;16.52;;;2.30;99.90;;;;;;4926304;29;20681;-75
2021/01/09 07:57:30;;;;;;;40.92;17.67;;;2.30;99.90;;;;;;4916188;29;20282;-75
2021/01/09 08:00:03;;;;;;;39.13;18.23;;;2.30;99.90;;;;;;4929297;29;20204;-75
2021/01/09 08:02:30;;;;;;;42.35;18.02;;;2.30;99.90;;;;;;4935441;29;20218;-75
2021/01/09 08:05:07;;;;;;;42.47;19.60;;;2.30;99.90;;;;;;4935231;29;20195;-75
2021/01/09 08:07:35;;;;;;;46.40;21.52;;;2.30;99.90;;;;;;4917370;29;20199;-75
2021/01/09 08:10:16;;;;;;;44.17;19.08;;;2.30;99.90;;;;;;4929380;29;20653;-74
2021/01/09 08:12:43;;;;;;;51.50;21.08;;;2.40;99.90;;;;;;4931700;29;20219;-75
2021/01/09 08:15:10;;;;;;;44.42;21.63;;;2.30;99.90;;;;;;4931172;29;20716;-75
2021/01/09 08:17:36;;;;;;;49.33;21.58;;;2.30;99.90;;;;;;4933181;29;20545;-76
2021/01/09 08:20:07;;;;;;;52.72;20.70;;;2.40;99.90;;;;;;4932825;29;20290;-75
2021/01/09 08:22:34;;;;;;;45.92;21.65;;;2.30;99.90;;;;;;4934953;29;20237;-75
2021/01/09 08:25:10;;;;;;;51.58;21.58;;;2.40;99.90;;;;;;4935122;29;20198;-75
2021/01/09 08:27:44;;;;;;;59.25;20.70;;;2.30;99.90;;;;;;4925119;29;20199;-75
2021/01/09 08:30:15;;;;;;;61.63;23.45;;;2.40;99.90;;;;;;4929465;29;20366;-75
2021/01/09 08:32:42;;;;;;;52.92;21.83;;;2.40;99.90;;;;;;4912340;29;20235;-75
2021/01/09 08:35:10;;;;;;;58.97;23.52;;;2.40;99.90;;;;;;4931367;29;20286;-75
2021/01/09 08:37:37;;;;;;;59.78;24.00;;;2.40;99.90;;;;;;4916335;29;20702;-75
2021/01/09 08:40:14;;;;;;;51.35;22.70;;;2.40;99.90;;;;;;4930964;29;20203;-75
2021/01/09 08:42:57;;;;;;;53.80;21.77;;;2.40;99.90;;;;;;4913843;29;20326;-75
2021/01/09 08:45:39;;;;;;;64.55;25.17;;;2.40;99.90;;;;;;4933784;29;20203;-75
2021/01/09 08:48:09;;;;;;;57.38;22.35;;;2.40;99.90;;;;;;4933794;29;20194;-82
2021/01/09 08:50:43;;;;;;;57.95;24.65;;;2.40;99.90;;;;;;4918533;29;20572;-82
2021/01/09 08:53:10;;;;;;;59.47;24.50;;;2.40;99.90;;;;;;4930736;29;20231;-75
2021/01/09 08:55:39;;;;;;;53.20;22.05;;;2.40;99.90;;;;;;4928892;29;20191;-75
2021/01/09 08:58:12;;;;;;;63.03;25.67;;;2.40;99.90;;;;;;4914679;29;20203;-76
2021/01/09 09:00:39;;;;;;;62.53;23.48;;;2.50;99.90;;;;;;4916100;29;20277;-75
2021/01/09 09:03:09;;;;;;;60.03;25.95;;;2.40;99.90;;;;;;4915578;29;20219;-76
2021/01/09 09:05:37;;;;;;;65.88;26.65;;;2.50;99.90;;;;;;4924655;29;20199;-76
2021/01/09 09:08:06;;;;;;;60.70;23.92;;;2.40;99.90;;;;;;4933866;29;20195;-76
2021/01/09 09:10:32;;;;;;;61.47;22.88;;;2.40;99.90;;;;;;4930920;29;20223;-76
2021/01/09 09:13:17;;;;;;;54.50;22.42;;;2.40;99.90;;;;;;4934090;29;20227;-75
2021/01/09 09:15:44;;;;;;;57.97;22.77;;;2.40;99.90;;;;;;4918302;29;20294;-76
2021/01/09 09:18:10;;;;;;;57.58;23.00;;;2.40;99.90;;;;;;4928402;29;20213;-76
2021/01/09 09:20:38;;;;;;;64.07;23.65;;;2.50;99.90;;;;;;4928930;29;20314;-75
2021/01/09 09:23:21;;;;;;;71.65;27.65;;;2.50;99.90;;;;;;4915030;29;20302;-75
2021/01/09 09:26:03;;;;;;;71.20;28.10;;;2.60;99.90;;;;;;4916958;29;20295;-75
2021/01/09 09:28:30;;;;;;;59.67;24.60;;;2.60;99.90;;;;;;4907572;29;20209;-75
2021/01/09 09:30:57;;;;;;;62.83;23.45;;;2.50;99.90;;;;;;4933524;29;20198;-75
2021/01/09 09:33:24;;;;;;;51.90;24.92;;;2.50;99.90;;;;;;4933308;29;20226;-75
2021/01/09 09:35:51;;;;;;;74.05;28.50;;;2.60;99.90;;;;;;4916800;29;20281;-75
2021/01/09 09:38:27;;;;;;;77.18;25.73;;;2.50;99.90;;;;;;4932677;29;20207;-75
2021/01/09 09:41:04;;;;;;;60.42;25.17;;;2.60;99.90;;;;;;4911236;29;20199;-75
2021/01/09 09:43:32;;;;;;;56.80;22.98;;;2.60;99.90;;;;;;4913636;29;20649;-75
2021/01/09 09:46:01;;;;;;;73.30;29.95;;;2.50;99.90;;;;;;4931333;29;20191;-75
2021/01/09 09:48:29;;;;;;;65.25;28.40;;;2.60;99.90;;;;;;4931497;29;20199;-75
2021/01/09 09:51:06;;;;;;;68.53;31.35;;;2.60;99.90;;;;;;4931382;29;20191;-75
2021/01/09 09:53:35;;;;;;;85.05;33.40;;;2.60;99.90;;;;;;4932871;29;20292;-76
2021/01/09 09:56:17;;;;;;;66.38;27.55;;;2.60;99.90;;;;;;4916685;29;20278;-75
2021/01/09 09:58:45;;;;;;;90.72;33.70;;;2.60;99.90;;;;;;4919068;29;20197;-75
2021/01/09 10:01:16;;;;;;;79.70;34.60;;;2.60;99.90;;;;;;4914751;29;20301;-76
2021/01/09 10:03:43;;;;;;;70.05;29.15;;;2.60;99.90;;;;;;4928297;29;20195;-75
2021/01/09 10:06:09;;;;;;;59.55;24.77;;;2.60;99.90;;;;;;4930266;29;20286;-75
2021/01/09 10:08:36;;;;;;;56.20;22.40;;;2.60;99.90;;;;;;4930901;29;20231;-75
2021/01/09 10:11:03;;;;;;;56.22;21.40;;;2.70;99.90;;;;;;4931447;29;20198;-75
2021/01/09 10:13:31;;;;;;;50.85;21.85;;;2.70;99.90;;;;;;4913087;29;20229;-76
2021/01/09 10:15:59;;;;;;;58.25;21.92;;;2.70;99.90;;;;;;4927767;29;20691;-75
2021/01/09 10:18:27;;;;;;;51.53;21.65;;;2.70;99.90;;;;;;4932177;29;20270;-75
2021/01/09 10:20:54;;;;;;;54.55;21.60;;;2.60;99.90;;;;;;4935254;29;20551;-75
2021/01/09 10:23:20;;;;;;;56.53;22.08;;;2.70;99.90;;;;;;4916425;29;20243;-76
2021/01/09 10:25:47;;;;;;;63.42;23.20;;;2.70;99.90;;;;;;4934759;29;20195;-76
2021/01/09 10:28:14;;;;;;;50.55;21.13;;;2.80;99.90;;;;;;4935913;29;20654;-75
2021/01/09 10:30:40;;;;;;;53.35;21.15;;;2.80;99.90;;;;;;4931843;29;20286;-76
2021/01/09 10:33:09;;;;;;;48.47;21.30;;;2.80;99.90;;;;;;4936708;29;20226;-76
2021/01/09 10:35:36;;;;;;;67.35;23.27;;;2.90;99.90;;;;;;4934011;29;20553;-75
2021/01/09 10:38:02;;;;;;;55.65;21.65;;;2.90;99.90;;;;;;4931366;29;20191;-75
2021/01/09 10:40:29;;;;;;;55.97;22.08;;;2.90;99.90;;;;;;4931826;29;20411;-75
2021/01/09 10:42:56;;;;;;;50.33;21.05;;;2.90;99.90;;;;;;4934509;29;20234;-76
2021/01/09 10:45:22;;;;;;;61.30;21.30;;;3.00;99.90;;;;;;4934383;29;20197;-76
2021/01/09 10:47:49;;;;;;;50.70;23.13;;;3.00;99.90;;;;;;4919037;29;20290;-75
2021/01/09 10:50:16;;;;;;;50.40;21.38;;;3.00;99.90;;;;;;4931894;29;20282;-76
2021/01/09 10:52:43;;;;;;;44.03;20.10;;;3.10;99.90;;;;;;4936012;29;20259;-76
2021/01/09 10:55:10;;;;;;;50.47;22.25;;;3.10;99.90;;;;;;4936262;29;20198;-76
2021/01/09 10:57:37;;;;;;;47.20;19.65;;;3.10;99.90;;;;;;4935922;29;20199;-76
2021/01/09 11:00:06;;;;;;;45.90;19.27;;;3.10;99.90;;;;;;4933380;29;20195;-75
2021/01/09 11:02:33;;;;;;;52.10;20.33;;;3.10;99.90;;;;;;4929872;29;20219;-75
2021/01/09 11:04:59;;;;;;;54.60;22.77;;;3.10;99.90;;;;;;4927237;29;20206;-76
2021/01/09 11:07:27;;;;;;;53.30;21.42;;;3.20;99.90;;;;;;4934103;29;20229;-75
2021/01/09 11:09:54;;;;;;;51.10;21.00;;;3.20;99.90;;;;;;4932889;29;20301;-75
2021/01/09 11:12:20;;;;;;;43.63;20.02;;;3.10;99.90;;;;;;4933370;29;20269;-75
2021/01/09 11:14:47;;;;;;;45.53;19.58;;;3.10;99.90;;;;;;4936944;29;20202;-76
2021/01/09 11:17:14;;;;;;;44.83;18.50;;;3.20;99.90;;;;;;4936868;29;20551;-76
2021/01/09 11:19:40;;;;;;;50.03;20.63;;;3.20;99.90;;;;;;4935347;29;20226;-76
2021/01/09 11:22:07;;;;;;;49.22;23.05;;;3.10;99.90;;;;;;4934340;29;20211;-75
2021/01/09 11:24:35;;;;;;;44.05;19.50;;;3.10;99.90;;;;;;4928906;29;20199;-75
2021/01/09 11:27:02;;;;;;;38.35;17.77;;;3.20;99.90;;;;;;4913762;29;20196;-75
2021/01/09 11:29:29;;;;;;;45.63;18.42;;;3.10;99.90;;;;;;4915653;29;20194;-75
2021/01/09 11:31:57;;;;;;;44.15;19.75;;;3.20;99.90;;;;;;4930515;29;20620;-75
2021/01/09 11:34:24;;;;;;;46.30;19.30;;;3.10;99.90;;;;;;4932929;29;20715;-76
2021/01/09 11:36:50;;;;;;;42.53;20.05;;;3.20;99.90;;;;;;4933955;29;20307;-74
2021/01/09 11:39:17;;;;;;;45.75;19.60;;;3.20;99.90;;;;;;4933792;29;20285;-74
2021/01/09 11:41:45;;;;;;;40.28;18.27;;;3.20;99.90;;;;;;4934082;29;20219;-75
2021/01/09 11:44:11;;;;;;;41.22;17.67;;;3.20;99.90;;;;;;4917853;29;20194;-75
2021/01/09 11:46:38;;;;;;;41.42;18.95;;;3.20;99.90;;;;;;4929788;29;20290;-77
2021/01/09 11:49:05;;;;;;;35.30;17.23;;;3.20;99.90;;;;;;4929636;29;20202;-75
2021/01/09 11:51:31;;;;;;;37.85;18.55;;;3.20;99.90;;;;;;4926526;29;20284;-76
2021/01/09 11:53:58;;;;;;;38.53;19.80;;;3.30;99.90;;;;;;4931033;29;20321;-75
2021/01/09 11:56:25;;;;;;;38.05;19.02;;;3.30;99.90;;;;;;4932206;29;20559;-75
2021/01/09 11:58:52;;;;;;;46.15;19.83;;;3.30;99.90;;;;;;4932604;29;20261;-75
2021/01/09 12:01:19;;;;;;;41.28;18.88;;;3.30;99.90;;;;;;4934032;29;20230;-75
2021/01/09 12:03:46;;;;;;;41.78;19.75;;;3.30;99.90;;;;;;4933078;29;20564;-75
2021/01/09 12:06:17;;;;;;;52.83;23.70;;;3.30;99.90;;;;;;4934481;29;20594;-75
2021/01/09 12:08:44;;;;;;;53.00;21.33;;;3.30;99.90;;;;;;4883883;29;835696;-75
2021/01/09 12:11:11;;;;;;;58.55;22.92;;;3.30;99.90;;;;;;4923503;29;20227;-76
2021/01/09 12:13:38;;;;;;;44.90;21.85;;;3.30;99.90;;;;;;4914963;29;20698;-75
2021/01/09 12:16:07;;;;;;;44.17;21.60;;;3.30;99.90;;;;;;4933513;29;20203;-75
2021/01/09 12:18:34;;;;;;;43.63;19.40;;;3.30;99.90;;;;;;4932360;29;20203;-75
2021/01/09 12:21:01;;;;;;;48.72;22.52;;;3.30;99.90;;;;;;4932946;29;20732;-75
2021/01/09 12:23:27;;;;;;;38.60;19.55;;;3.30;99.90;;;;;;4934649;29;20207;-75
2021/01/09 12:25:54;;;;;;;50.10;22.05;;;3.20;99.90;;;;;;4934524;29;20284;-75
2021/01/09 12:28:21;;;;;;;51.10;23.05;;;3.40;99.90;;;;;;4917662;29;20218;-75
2021/01/09 12:30:49;;;;;;;50.85;22.17;;;3.30;99.90;;;;;;4930976;29;20238;-74
2021/01/09 12:33:17;;;;;;;42.67;20.25;;;3.30;99.90;;;;;;4928513;29;20329;-74
2021/01/09 12:35:44;;;;;;;43.15;20.55;;;3.40;99.90;;;;;;4931036;29;20195;-75
2021/01/09 12:38:11;;;;;;;62.20;28.05;;;3.30;99.90;;;;;;4915921;29;20198;-74
2021/01/09 12:40:37;;;;;;;62.83;26.42;;;3.40;99.90;;;;;;4931821;29;20206;-74
2021/01/09 12:43:04;;;;;;;48.22;24.50;;;3.30;99.90;;;;;;4932326;29;20689;-74
2021/01/09 12:45:31;;;;;;;52.70;22.75;;;3.30;99.90;;;;;;4916865;29;20201;-75